createdAt,value
2023-05-16T00:00:55.866Z,94252.00
2023-05-16T00:01:55.877Z,94254.00
2023-05-16T00:02:55.986Z,94254.00
2023-05-16T00:03:55.976Z,94256.00
2023-05-16T00:04:55.891Z,94256.00
2023-05-16T00:05:55.896Z,94256.00
2023-05-16T00:06:55.910Z,94256.00
2023-05-16T00:07:55.904Z,94258.00
2023-05-16T00:08:55.912Z,94258.00
2023-05-16T00:09:55.916Z,94254.00
2023-05-16T00:10:55.929Z,94256.00
2023-05-16T00:11:55.892Z,94252.00
2023-05-16T00:12:55.899Z,94250.00
2023-05-16T00:13:55.887Z,94250.00
2023-05-16T00:14:55.945Z,94256.00
2023-05-16T00:15:56.001Z,94254.00
2023-05-16T00:16:56.082Z,94256.00
2023-05-16T00:17:56.213Z,94252.00
2023-05-16T00:18:56.190Z,94252.00
2023-05-16T00:19:56.147Z,94248.00
2023-05-16T00:20:56.151Z,94248.00
2023-05-16T00:21:56.125Z,94248.00
2023-05-16T00:22:56.152Z,94246.00
2023-05-16T00:23:56.135Z,94244.00
2023-05-16T00:24:56.137Z,94240.00
2023-05-16T00:25:56.205Z,94242.00
2023-05-16T00:26:56.114Z,94242.00
2023-05-16T00:27:56.117Z,94242.00
2023-05-16T00:28:56.106Z,94240.00
2023-05-16T00:29:56.142Z,94240.00
2023-05-16T00:30:56.123Z,94238.00
2023-05-16T00:31:56.189Z,94240.00
2023-05-16T00:32:56.226Z,94240.00
2023-05-16T00:33:56.132Z,94238.00
2023-05-16T00:34:56.147Z,94234.00
2023-05-16T00:35:56.162Z,94234.00
2023-05-16T00:36:56.159Z,94236.00
2023-05-16T00:37:56.185Z,94234.00
2023-05-16T00:38:56.168Z,94230.00
2023-05-16T00:39:56.159Z,94232.00
2023-05-16T00:40:56.188Z,94234.00
2023-05-16T00:41:56.187Z,94228.00
2023-05-16T00:42:56.222Z,94230.00
2023-05-16T00:43:56.217Z,94224.00
2023-05-16T00:44:56.219Z,94222.00
2023-05-16T00:45:56.264Z,94220.00
2023-05-16T00:46:56.230Z,94226.00
2023-05-16T00:47:56.277Z,94224.00
2023-05-16T00:48:56.253Z,94224.00
2023-05-16T00:49:56.257Z,94218.00
2023-05-16T00:50:56.259Z,94218.00
2023-05-16T00:51:56.258Z,94218.00
2023-05-16T00:52:56.271Z,94216.00
2023-05-16T00:53:56.302Z,94214.00
2023-05-16T00:54:56.307Z,94214.00
2023-05-16T00:55:56.336Z,94216.00
2023-05-16T00:56:56.326Z,94216.00
2023-05-16T00:57:56.354Z,94216.00
2023-05-16T00:58:56.369Z,94216.00
2023-05-16T00:59:56.405Z,94214.00
2023-05-16T01:00:56.463Z,94214.00
2023-05-16T01:01:56.636Z,94216.00
2023-05-16T01:02:56.559Z,94214.00
2023-05-16T01:03:56.623Z,94216.00
2023-05-16T01:04:56.472Z,94214.00
2023-05-16T01:05:56.520Z,94216.00
2023-05-16T01:06:56.493Z,94214.00
2023-05-16T01:07:56.504Z,94216.00
2023-05-16T01:08:56.515Z,94214.00
2023-05-16T01:09:56.521Z,94214.00
2023-05-16T01:10:56.510Z,94212.00
2023-05-16T01:11:56.526Z,94209.00
2023-05-16T01:12:56.510Z,94209.00
2023-05-16T01:13:56.528Z,94214.00
2023-05-16T01:14:56.524Z,94214.00
2023-05-16T01:15:56.623Z,94210.00
2023-05-16T01:16:56.530Z,94212.00
2023-05-16T01:17:56.597Z,94210.00
2023-05-16T01:18:56.602Z,94209.00
2023-05-16T01:19:56.551Z,94210.00
2023-05-16T01:20:56.561Z,94209.00
2023-05-16T01:21:56.552Z,94210.00
2023-05-16T01:22:56.574Z,94209.00
2023-05-16T01:23:56.568Z,94210.00
2023-05-16T01:24:56.580Z,94210.00
2023-05-16T01:25:57.076Z,94205.00
2023-05-16T01:26:56.575Z,94205.00
2023-05-16T01:27:56.564Z,94207.00
2023-05-16T01:28:56.575Z,94205.00
2023-05-16T01:29:56.585Z,94207.00
2023-05-16T01:30:56.580Z,94203.00
2023-05-16T01:31:56.673Z,94205.00
2023-05-16T01:32:56.640Z,94205.00
2023-05-16T01:33:56.602Z,94207.00
2023-05-16T01:34:56.588Z,94203.00
2023-05-16T01:35:57.081Z,94203.00
2023-05-16T01:36:56.624Z,94203.00
2023-05-16T01:37:56.616Z,94205.00
2023-05-16T01:38:56.642Z,94205.00
2023-05-16T01:39:56.651Z,94207.00
2023-05-16T01:40:56.649Z,94207.00
2023-05-16T01:41:56.655Z,94209.00
2023-05-16T01:42:56.654Z,94209.00
2023-05-16T01:43:56.675Z,94212.00
2023-05-16T01:44:56.662Z,94210.00
2023-05-16T01:45:56.689Z,94207.00
2023-05-16T01:46:56.720Z,94207.00
2023-05-16T01:47:56.678Z,94203.00
2023-05-16T01:48:56.638Z,94209.00
2023-05-16T01:49:56.637Z,94210.00
2023-05-16T01:50:56.728Z,94209.00
2023-05-16T01:51:56.767Z,94210.00
2023-05-16T01:52:56.835Z,94212.00
2023-05-16T01:53:56.886Z,94207.00
2023-05-16T01:54:56.844Z,94205.00
2023-05-16T01:55:56.828Z,94203.00
2023-05-16T01:56:56.836Z,94203.00
2023-05-16T01:57:56.840Z,94201.00
2023-05-16T01:58:56.897Z,94199.00
2023-05-16T01:59:56.885Z,94201.00
2023-05-16T02:00:56.990Z,94199.00
2023-05-16T02:01:57.015Z,94199.00
2023-05-16T02:02:57.149Z,94199.00
2023-05-16T02:03:57.137Z,94199.00
2023-05-16T02:04:57.181Z,94201.00
2023-05-16T02:05:57.229Z,94199.00
2023-05-16T02:06:57.303Z,94203.00
2023-05-16T02:07:57.299Z,94205.00
2023-05-16T02:08:57.277Z,94207.00
2023-05-16T02:09:57.311Z,94209.00
2023-05-16T02:10:57.307Z,94207.00
2023-05-16T02:11:57.299Z,94203.00
2023-05-16T02:12:57.329Z,94199.00
2023-05-16T02:13:57.390Z,94197.00
2023-05-16T02:14:57.467Z,94195.00
2023-05-16T02:15:57.489Z,94199.00
2023-05-16T02:16:57.478Z,94195.00
2023-05-16T02:17:57.537Z,94199.00
2023-05-16T02:18:57.509Z,94201.00
2023-05-16T02:19:57.480Z,94201.00
2023-05-16T02:20:57.469Z,94201.00
2023-05-16T02:21:57.481Z,94199.00
2023-05-16T02:22:57.476Z,94199.00
2023-05-16T02:23:57.478Z,94199.00
2023-05-16T02:24:57.465Z,94197.00
2023-05-16T02:25:57.467Z,94199.00
2023-05-16T02:26:57.486Z,94193.00
2023-05-16T02:27:57.476Z,94195.00
2023-05-16T02:28:57.512Z,94193.00
2023-05-16T02:29:57.538Z,94189.00
2023-05-16T02:30:57.636Z,94191.00
2023-05-16T02:31:57.583Z,94191.00
2023-05-16T02:32:57.647Z,94193.00
2023-05-16T02:33:57.666Z,94191.00
2023-05-16T02:34:57.711Z,94191.00
2023-05-16T02:35:57.757Z,94189.00
2023-05-16T02:36:57.792Z,94191.00
2023-05-16T02:37:57.759Z,94191.00
2023-05-16T02:38:57.762Z,94189.00
2023-05-16T02:39:57.755Z,94189.00
2023-05-16T02:40:57.763Z,94191.00
2023-05-16T02:41:57.773Z,94187.00
2023-05-16T02:42:57.771Z,94185.00
2023-05-16T02:43:57.789Z,94185.00
2023-05-16T02:44:57.778Z,94189.00
2023-05-16T02:45:57.783Z,94185.00
2023-05-16T02:46:57.828Z,94185.00
2023-05-16T02:47:57.878Z,94183.00
2023-05-16T02:48:57.932Z,94183.00
2023-05-16T02:49:58.012Z,94175.00
2023-05-16T02:50:58.045Z,94177.00
2023-05-16T02:51:58.070Z,94173.00
2023-05-16T02:52:58.057Z,94173.00
2023-05-16T02:53:58.063Z,94173.00
2023-05-16T02:55:15.868Z,94175.00
2023-05-16T02:55:59.080Z,94167.00
2023-05-16T02:56:58.036Z,94165.00
2023-05-16T02:57:58.048Z,94165.00
2023-05-16T02:58:58.045Z,94163.00
2023-05-16T02:59:58.042Z,94163.00
2023-05-16T03:00:58.042Z,94160.00
2023-05-16T03:01:58.051Z,94162.00
2023-05-16T03:02:58.085Z,94162.00
2023-05-16T03:03:58.087Z,94163.00
2023-05-16T03:04:57.982Z,94163.00
2023-05-16T03:05:57.980Z,94167.00
2023-05-16T03:06:57.972Z,94167.00
2023-05-16T03:07:57.972Z,94167.00
2023-05-16T03:08:57.957Z,94167.00
2023-05-16T03:09:57.964Z,94169.00
2023-05-16T03:10:57.963Z,94171.00
2023-05-16T03:11:57.930Z,94169.00
2023-05-16T03:12:57.939Z,94171.00
2023-05-16T03:13:59.698Z,94173.00
2023-05-16T03:14:57.913Z,94173.00
2023-05-16T03:15:57.948Z,94175.00
2023-05-16T03:16:57.919Z,94171.00
2023-05-16T03:17:57.922Z,94171.00
2023-05-16T03:18:57.969Z,94169.00
2023-05-16T03:19:57.907Z,94167.00
2023-05-16T03:20:57.890Z,94169.00
2023-05-16T03:21:57.860Z,94167.00
2023-05-16T03:22:57.860Z,94167.00
2023-05-16T03:23:57.880Z,94165.00
2023-05-16T03:24:57.871Z,94165.00
2023-05-16T03:25:57.849Z,94163.00
2023-05-16T03:26:57.851Z,94167.00
2023-05-16T03:27:57.834Z,94165.00
2023-05-16T03:28:57.829Z,94169.00
2023-05-16T03:29:57.842Z,94167.00
2023-05-16T03:30:57.812Z,94165.00
2023-05-16T03:31:57.846Z,94167.00
2023-05-16T03:32:57.866Z,94169.00
2023-05-16T03:33:57.801Z,94169.00
2023-05-16T03:34:57.781Z,94167.00
2023-05-16T03:35:57.769Z,94167.00
2023-05-16T03:36:57.778Z,94165.00
2023-05-16T03:37:57.759Z,94163.00
2023-05-16T03:38:57.753Z,94165.00
2023-05-16T03:39:57.746Z,94165.00
2023-05-16T03:40:57.741Z,94167.00
2023-05-16T03:41:57.753Z,94165.00
2023-05-16T03:42:57.775Z,94165.00
2023-05-16T03:43:57.737Z,94169.00
2023-05-16T03:44:57.726Z,94165.00
2023-05-16T03:45:57.770Z,94163.00
2023-05-16T03:46:57.716Z,94163.00
2023-05-16T03:47:57.753Z,94162.00
2023-05-16T03:48:57.718Z,94162.00
2023-05-16T03:49:57.691Z,94162.00
2023-05-16T03:50:57.692Z,94160.00
2023-05-16T03:51:57.671Z,94163.00
2023-05-16T03:52:57.683Z,94163.00
2023-05-16T03:53:57.685Z,94162.00
2023-05-16T03:54:57.663Z,94162.00
2023-05-16T03:55:57.649Z,94163.00
2023-05-16T03:56:57.641Z,94165.00
2023-05-16T03:57:57.641Z,94160.00
2023-05-16T03:58:57.640Z,94162.00
2023-05-16T03:59:57.619Z,94163.00
2023-05-16T04:00:57.633Z,94165.00
2023-05-16T04:01:57.671Z,94163.00
2023-05-16T04:02:57.623Z,94163.00
2023-05-16T04:03:57.644Z,94163.00
2023-05-16T04:04:57.643Z,94165.00
2023-05-16T04:05:57.741Z,94160.00
2023-05-16T04:06:57.657Z,94167.00
2023-05-16T04:07:57.661Z,94167.00
2023-05-16T04:08:57.715Z,94163.00
2023-05-16T04:09:57.736Z,94169.00
2023-05-16T04:10:57.725Z,94171.00
2023-05-16T04:11:57.738Z,94169.00
2023-05-16T04:12:57.747Z,94167.00
2023-05-16T04:13:57.819Z,94167.00
2023-05-16T04:14:57.766Z,94169.00
2023-05-16T04:15:57.788Z,94167.00
2023-05-16T04:16:57.869Z,94167.00
2023-05-16T04:18:00.644Z,94163.00
2023-05-16T04:18:58.612Z,94163.00
2023-05-16T04:19:57.760Z,94165.00
2023-05-16T04:20:57.760Z,94165.00
2023-05-16T04:21:57.748Z,94163.00
2023-05-16T04:22:57.746Z,94167.00
2023-05-16T04:23:57.781Z,94163.00
2023-05-16T04:24:57.739Z,94162.00
2023-05-16T04:25:57.741Z,94162.00
2023-05-16T04:26:57.720Z,94160.00
2023-05-16T04:27:57.727Z,94163.00
2023-05-16T04:28:58.319Z,94163.00
2023-05-16T04:29:57.714Z,94165.00
2023-05-16T04:30:57.689Z,94165.00
2023-05-16T04:31:57.862Z,94169.00
2023-05-16T04:32:57.703Z,94171.00
2023-05-16T04:33:57.662Z,94167.00
2023-05-16T04:34:57.668Z,94169.00
2023-05-16T04:35:57.656Z,94167.00
2023-05-16T04:36:57.662Z,94167.00
2023-05-16T04:37:57.642Z,94165.00
2023-05-16T04:38:57.632Z,94165.00
2023-05-16T04:39:57.645Z,94165.00
2023-05-16T04:40:57.630Z,94167.00
2023-05-16T04:41:57.631Z,94169.00
2023-05-16T04:42:57.615Z,94167.00
2023-05-16T04:43:57.597Z,94169.00
2023-05-16T04:44:57.602Z,94169.00
2023-05-16T04:45:57.673Z,94167.00
2023-05-16T04:46:57.797Z,94165.00
2023-05-16T04:47:57.705Z,94163.00
2023-05-16T04:48:57.672Z,94163.00
2023-05-16T04:49:57.701Z,94163.00
2023-05-16T04:50:57.750Z,94162.00
2023-05-16T04:51:57.780Z,94160.00
2023-05-16T04:52:57.800Z,94162.00
2023-05-16T04:53:57.845Z,94160.00
2023-05-16T04:54:57.870Z,94163.00
2023-05-16T04:55:57.928Z,94165.00
2023-05-16T04:56:57.942Z,94162.00
2023-05-16T04:57:58.006Z,94162.00
2023-05-16T04:58:58.017Z,94163.00
2023-05-16T04:59:58.022Z,94163.00
2023-05-16T05:01:58.119Z,94163.00
2023-05-16T05:02:58.082Z,94167.00
2023-05-16T05:03:58.081Z,94171.00
2023-05-16T05:04:58.062Z,94171.00
2023-05-16T05:05:58.037Z,94175.00
2023-05-16T05:06:58.010Z,94173.00
2023-05-16T05:07:58.008Z,94175.00
2023-05-16T05:08:58.008Z,94177.00
2023-05-16T05:09:57.976Z,94177.00
2023-05-16T05:10:57.997Z,94179.00
2023-05-16T05:11:57.974Z,94179.00
2023-05-16T05:12:57.985Z,94177.00
2023-05-16T05:13:57.992Z,94183.00
2023-05-16T05:14:57.973Z,94183.00
2023-05-16T05:15:57.969Z,94187.00
2023-05-16T05:16:58.020Z,94187.00
2023-05-16T05:17:58.087Z,94185.00
2023-05-16T05:18:58.036Z,94187.00
2023-05-16T05:19:57.926Z,94185.00
2023-05-16T05:20:57.924Z,94183.00
2023-05-16T05:21:57.940Z,94179.00
2023-05-16T05:22:57.908Z,94183.00
2023-05-16T05:23:57.894Z,94183.00
2023-05-16T05:24:57.905Z,94187.00
2023-05-16T05:25:57.893Z,94189.00
2023-05-16T05:26:57.979Z,94187.00
2023-05-16T05:27:57.863Z,94189.00
2023-05-16T05:29:05.113Z,94191.00
2023-05-16T05:29:58.859Z,94189.00
2023-05-16T05:30:57.861Z,94187.00
2023-05-16T05:31:57.930Z,94187.00
2023-05-16T05:32:57.881Z,94185.00
2023-05-16T05:33:57.838Z,94185.00
2023-05-16T05:34:57.875Z,94181.00
2023-05-16T05:35:58.125Z,94181.00
2023-05-16T05:36:57.822Z,94177.00
2023-05-16T05:37:57.836Z,94175.00
2023-05-16T05:38:57.802Z,94177.00
2023-05-16T05:39:57.772Z,94173.00
2023-05-16T05:40:58.138Z,94171.00
2023-05-16T05:41:57.772Z,94171.00
2023-05-16T05:42:57.761Z,94171.00
2023-05-16T05:43:57.762Z,94169.00
2023-05-16T05:44:57.760Z,94171.00
2023-05-16T05:45:58.179Z,94167.00
2023-05-16T05:46:57.752Z,94167.00
2023-05-16T05:47:57.748Z,94167.00
2023-05-16T05:48:57.746Z,94167.00
2023-05-16T05:49:57.746Z,94167.00
2023-05-16T05:50:58.155Z,94165.00
2023-05-16T05:51:57.716Z,94165.00
2023-05-16T05:52:57.754Z,94165.00
2023-05-16T05:53:57.720Z,94165.00
2023-05-16T05:54:57.791Z,94163.00
2023-05-16T05:55:57.764Z,94165.00
2023-05-16T05:56:57.805Z,94165.00
2023-05-16T05:57:57.841Z,94163.00
2023-05-16T05:58:57.832Z,94162.00
2023-05-16T05:59:57.892Z,94162.00
2023-05-16T06:00:57.888Z,94162.00
2023-05-16T06:01:57.909Z,94162.00
2023-05-16T06:02:57.960Z,94165.00
2023-05-16T06:03:58.819Z,94162.00
2023-05-16T06:04:57.921Z,94160.00
2023-05-16T06:05:58.089Z,94160.00
2023-05-16T06:06:57.976Z,94162.00
2023-05-16T06:07:57.954Z,94158.00
2023-05-16T06:08:57.955Z,94160.00
2023-05-16T06:09:57.960Z,94160.00
2023-05-16T06:10:58.172Z,94156.00
2023-05-16T06:11:57.979Z,94158.00
2023-05-16T06:12:57.993Z,94160.00
2023-05-16T06:13:58.033Z,94162.00
2023-05-16T06:14:58.125Z,94162.00
2023-05-16T06:15:58.119Z,94167.00
2023-05-16T06:16:58.237Z,94162.00
2023-05-16T06:17:58.314Z,94163.00
2023-05-16T06:18:58.323Z,94163.00
2023-05-16T06:19:58.329Z,94163.00
2023-05-16T06:20:58.347Z,94167.00
2023-05-16T06:21:58.389Z,94169.00
2023-05-16T06:22:58.430Z,94165.00
2023-05-16T06:23:58.473Z,94167.00
2023-05-16T06:24:58.542Z,94165.00
2023-05-16T06:25:58.556Z,94163.00
2023-05-16T06:26:58.606Z,94165.00
2023-05-16T06:27:58.663Z,94162.00
2023-05-16T06:28:58.677Z,94163.00
2023-05-16T06:29:58.734Z,94158.00
2023-05-16T06:30:59.179Z,94160.00
2023-05-16T06:31:58.947Z,94158.00
2023-05-16T06:32:58.893Z,94156.00
2023-05-16T06:33:58.935Z,94156.00
2023-05-16T06:34:59.054Z,94156.00
2023-05-16T06:35:59.153Z,94156.00
2023-05-16T06:36:59.132Z,94156.00
2023-05-16T06:37:59.159Z,94160.00
2023-05-16T06:38:59.248Z,94163.00
2023-05-16T06:39:59.296Z,94162.00
2023-05-16T06:40:59.664Z,94165.00
2023-05-16T06:41:59.440Z,94165.00
2023-05-16T06:42:59.441Z,94163.00
2023-05-16T06:43:59.519Z,94165.00
2023-05-16T06:44:59.561Z,94167.00
2023-05-16T06:45:59.675Z,94165.00
2023-05-16T06:46:59.673Z,94169.00
2023-05-16T06:47:59.712Z,94165.00
2023-05-16T06:48:59.748Z,94163.00
2023-05-16T06:49:59.781Z,94160.00
2023-05-16T06:51:00.163Z,94162.00
2023-05-16T06:51:59.845Z,94165.00
2023-05-16T06:52:59.902Z,94163.00
2023-05-16T06:54:00.620Z,94163.00
2023-05-16T06:54:59.976Z,94163.00
2023-05-16T06:56:00.023Z,94163.00
2023-05-16T06:57:00.053Z,94162.00
2023-05-16T06:58:00.080Z,94162.00
2023-05-16T06:59:00.139Z,94160.00
2023-05-16T07:00:00.150Z,94162.00
2023-05-16T07:01:00.204Z,94160.00
2023-05-16T07:02:00.214Z,94158.00
2023-05-16T07:03:00.372Z,94160.00
2023-05-16T07:04:00.384Z,94158.00
2023-05-16T07:05:00.342Z,94158.00
2023-05-16T07:06:00.383Z,94160.00
2023-05-16T07:07:00.485Z,94158.00
2023-05-16T07:08:00.589Z,94154.00
2023-05-16T07:09:00.516Z,94156.00
2023-05-16T07:10:00.558Z,94156.00
2023-05-16T07:11:00.817Z,94158.00
2023-05-16T07:12:00.592Z,94154.00
2023-05-16T07:13:00.656Z,94156.00
2023-05-16T07:14:00.669Z,94154.00
2023-05-16T07:15:00.701Z,94158.00
2023-05-16T07:16:00.844Z,94154.00
2023-05-16T07:17:00.948Z,94152.00
2023-05-16T07:18:00.872Z,94158.00
2023-05-16T07:19:00.967Z,94156.00
2023-05-16T07:20:04.395Z,94158.00
2023-05-16T07:21:01.178Z,94156.00
2023-05-16T07:22:00.895Z,94160.00
2023-05-16T07:23:00.892Z,94160.00
2023-05-16T07:24:00.905Z,94160.00
2023-05-16T07:25:00.880Z,94158.00
2023-05-16T07:26:01.187Z,94158.00
2023-05-16T07:27:00.939Z,94158.00
2023-05-16T07:28:00.872Z,94160.00
2023-05-16T07:29:00.861Z,94158.00
2023-05-16T07:30:00.848Z,94162.00
2023-05-16T07:31:00.892Z,94162.00
2023-05-16T07:32:00.900Z,94165.00
2023-05-16T07:33:00.912Z,94162.00
2023-05-16T07:34:00.808Z,94163.00
2023-05-16T07:35:00.830Z,94165.00
2023-05-16T07:36:12.046Z,94167.00
2023-05-16T07:37:01.789Z,94167.00
2023-05-16T07:38:00.772Z,94171.00
2023-05-16T07:39:00.766Z,94173.00
2023-05-16T07:40:00.764Z,94173.00
2023-05-16T07:41:01.183Z,94175.00
2023-05-16T07:42:00.754Z,94175.00
2023-05-16T07:43:00.732Z,94173.00
2023-05-16T07:44:00.727Z,94171.00
2023-05-16T07:45:00.718Z,94175.00
2023-05-16T07:46:00.775Z,94177.00
2023-05-16T07:47:00.708Z,94177.00
2023-05-16T07:48:00.756Z,94177.00
2023-05-16T07:49:00.687Z,94179.00
2023-05-16T07:50:00.681Z,94179.00
2023-05-16T07:51:00.700Z,94179.00
2023-05-16T07:52:00.686Z,94179.00
2023-05-16T07:53:00.709Z,94181.00
2023-05-16T07:54:00.723Z,94175.00
2023-05-16T07:55:00.742Z,94175.00
2023-05-16T07:56:00.771Z,94175.00
2023-05-16T07:57:00.742Z,94175.00
2023-05-16T07:58:00.781Z,94177.00
2023-05-16T07:59:00.802Z,94177.00
2023-05-16T08:00:00.862Z,94177.00
2023-05-16T08:01:00.815Z,94179.00
2023-05-16T08:02:00.921Z,94181.00
2023-05-16T08:03:00.907Z,94179.00
2023-05-16T08:04:00.885Z,94181.00
2023-05-16T08:05:00.903Z,94175.00
2023-05-16T08:06:00.964Z,94179.00
2023-05-16T08:07:00.892Z,94177.00
2023-05-16T08:08:00.907Z,94177.00
2023-05-16T08:09:00.915Z,94173.00
2023-05-16T08:10:00.894Z,94175.00
2023-05-16T08:11:00.931Z,94173.00
2023-05-16T08:12:00.939Z,94175.00
2023-05-16T08:13:00.954Z,94179.00
2023-05-16T08:14:00.954Z,94177.00
2023-05-16T08:15:01.027Z,94173.00
2023-05-16T08:16:01.229Z,94171.00
2023-05-16T08:17:01.029Z,94169.00
2023-05-16T08:18:01.181Z,94167.00
2023-05-16T08:19:01.079Z,94167.00
2023-05-16T08:20:01.049Z,94171.00
2023-05-16T08:21:01.198Z,94169.00
2023-05-16T08:22:01.073Z,94169.00
2023-05-16T08:23:01.034Z,94165.00
2023-05-16T08:24:01.076Z,94163.00
2023-05-16T08:25:01.084Z,94163.00
2023-05-16T08:26:01.097Z,94163.00
2023-05-16T08:27:01.094Z,94165.00
2023-05-16T08:28:01.115Z,94167.00
2023-05-16T08:29:01.147Z,94167.00
2023-05-16T08:30:01.196Z,94163.00
2023-05-16T08:31:01.176Z,94163.00
2023-05-16T08:32:01.311Z,94158.00
2023-05-16T08:33:01.206Z,94158.00
2023-05-16T08:34:01.247Z,94158.00
2023-05-16T08:35:01.219Z,94158.00
2023-05-16T08:36:01.850Z,94160.00
2023-05-16T08:37:01.726Z,94160.00
2023-05-16T08:38:01.282Z,94160.00
2023-05-16T08:39:01.284Z,94160.00
2023-05-16T08:40:01.308Z,94162.00
2023-05-16T08:41:01.690Z,94163.00
2023-05-16T08:42:01.448Z,94160.00
2023-05-16T08:43:01.433Z,94162.00
2023-05-16T08:44:01.445Z,94162.00
2023-05-16T08:45:01.438Z,94163.00
2023-05-16T08:46:01.699Z,94160.00
2023-05-16T08:47:01.509Z,94156.00
2023-05-16T08:48:01.557Z,94156.00
2023-05-16T08:49:01.479Z,94156.00
2023-05-16T08:50:01.447Z,94154.00
2023-05-16T08:51:01.480Z,94154.00
2023-05-16T08:52:01.516Z,94154.00
2023-05-16T08:53:01.516Z,94152.00
2023-05-16T08:54:01.524Z,94152.00
2023-05-16T08:55:10.178Z,94146.00
2023-05-16T08:56:02.868Z,94148.00
2023-05-16T08:57:01.487Z,94142.00
2023-05-16T08:58:01.496Z,94140.00
2023-05-16T08:59:01.497Z,94142.00
2023-05-16T09:00:01.493Z,94138.00
2023-05-16T09:01:01.795Z,94138.00
2023-05-16T09:02:01.485Z,94136.00
2023-05-16T09:03:01.537Z,94132.00
2023-05-16T09:04:01.579Z,94130.00
2023-05-16T09:05:01.459Z,94132.00
2023-05-16T09:06:01.707Z,94130.00
2023-05-16T09:07:01.444Z,94126.00
2023-05-16T09:08:01.509Z,94122.00
2023-05-16T09:09:01.475Z,94120.00
2023-05-16T09:10:01.519Z,94120.00
2023-05-16T09:11:01.728Z,94116.00
2023-05-16T09:12:02.010Z,94118.00
2023-05-16T09:13:01.629Z,94120.00
2023-05-16T09:14:01.722Z,94116.00
2023-05-16T09:15:01.735Z,94116.00
2023-05-16T09:16:02.198Z,94107.00
2023-05-16T09:17:01.906Z,94116.00
2023-05-16T09:18:01.946Z,94118.00
2023-05-16T09:19:02.169Z,94109.00
2023-05-16T09:20:02.014Z,94109.00
2023-05-16T09:21:02.070Z,94116.00
2023-05-16T09:22:02.232Z,94120.00
2023-05-16T09:23:02.054Z,94118.00
2023-05-16T09:24:02.050Z,94116.00
2023-05-16T09:25:02.110Z,94116.00
2023-05-16T09:26:02.253Z,94116.00
2023-05-16T09:27:02.692Z,94118.00
2023-05-16T09:28:03.315Z,94120.00
2023-05-16T09:29:02.194Z,94122.00
2023-05-16T09:30:02.241Z,94124.00
2023-05-16T09:31:02.756Z,94122.00
2023-05-16T09:32:02.339Z,94122.00
2023-05-16T09:33:02.538Z,94116.00
2023-05-16T09:34:02.422Z,94116.00
2023-05-16T09:35:02.451Z,94122.00
2023-05-16T09:36:02.478Z,94122.00
2023-05-16T09:37:02.543Z,94122.00
2023-05-16T09:38:02.564Z,94120.00
2023-05-16T09:39:02.644Z,94122.00
2023-05-16T09:40:02.697Z,94118.00
2023-05-16T09:41:02.795Z,94120.00
2023-05-16T09:42:02.822Z,94120.00
2023-05-16T09:43:02.890Z,94120.00
2023-05-16T09:44:02.941Z,94122.00
2023-05-16T09:45:02.982Z,94118.00
2023-05-16T09:46:03.038Z,94124.00
2023-05-16T09:47:03.093Z,94126.00
2023-05-16T09:48:03.130Z,94126.00
2023-05-16T09:49:03.059Z,94128.00
2023-05-16T09:50:03.077Z,94122.00
2023-05-16T09:51:03.231Z,94124.00
2023-05-16T09:52:03.205Z,94124.00
2023-05-16T09:53:03.282Z,94124.00
2023-05-16T09:54:03.322Z,94122.00
2023-05-16T09:55:03.385Z,94120.00
2023-05-16T09:56:03.433Z,94120.00
2023-05-16T09:57:03.472Z,94122.00
2023-05-16T09:58:03.430Z,94116.00
2023-05-16T09:59:03.439Z,94120.00
2023-05-16T10:00:03.475Z,94126.00
2023-05-16T10:01:03.590Z,94120.00
2023-05-16T10:02:03.624Z,94122.00
2023-05-16T10:03:05.851Z,94126.00
2023-05-16T10:04:03.844Z,94128.00
2023-05-16T10:05:03.802Z,94124.00
2023-05-16T10:06:03.812Z,94118.00
2023-05-16T10:07:03.814Z,94124.00
2023-05-16T10:08:03.853Z,94116.00
2023-05-16T10:09:03.859Z,94116.00
2023-05-16T10:10:03.887Z,94109.00
2023-05-16T10:11:03.928Z,94118.00
2023-05-16T10:12:03.915Z,94126.00
2023-05-16T10:13:03.981Z,94124.00
2023-05-16T10:14:05.972Z,94120.00
2023-05-16T10:15:03.959Z,94118.00
2023-05-16T10:16:04.203Z,94122.00
2023-05-16T10:17:03.956Z,94116.00
2023-05-16T10:18:03.970Z,94109.00
2023-05-16T10:19:04.028Z,94118.00
2023-05-16T10:20:04.227Z,94122.00
2023-05-16T10:21:03.977Z,94122.00
2023-05-16T10:22:03.952Z,94124.00
2023-05-16T10:23:03.923Z,94122.00
2023-05-16T10:24:03.907Z,94124.00
2023-05-16T10:25:04.236Z,94122.00
2023-05-16T10:26:04.226Z,94126.00
2023-05-16T10:27:03.877Z,94124.00
2023-05-16T10:28:03.893Z,94130.00
2023-05-16T10:29:03.858Z,94130.00
2023-05-16T10:30:03.860Z,94130.00
2023-05-16T10:31:03.859Z,94134.00
2023-05-16T10:32:03.999Z,94134.00
2023-05-16T10:33:03.896Z,94136.00
2023-05-16T10:34:03.823Z,94136.00
2023-05-16T10:35:03.808Z,94132.00
2023-05-16T10:36:04.213Z,94138.00
2023-05-16T10:37:04.230Z,94136.00
2023-05-16T10:38:04.951Z,94138.00
2023-05-16T10:39:04.735Z,94138.00
2023-05-16T10:40:03.777Z,94140.00
2023-05-16T10:41:03.861Z,94142.00
2023-05-16T10:42:03.832Z,94142.00
2023-05-16T10:43:03.758Z,94142.00
2023-05-16T10:44:03.746Z,94140.00
2023-05-16T10:45:06.055Z,94144.00
2023-05-16T10:46:03.830Z,94146.00
2023-05-16T10:47:03.829Z,94144.00
2023-05-16T10:48:04.021Z,94142.00
2023-05-16T10:49:03.881Z,94140.00
2023-05-16T10:50:03.887Z,94142.00
2023-05-16T10:51:04.117Z,94142.00
2023-05-16T10:52:03.953Z,94148.00
2023-05-16T10:53:03.943Z,94150.00
2023-05-16T10:54:03.937Z,94148.00
2023-05-16T10:55:03.962Z,94152.00
2023-05-16T10:56:04.046Z,94154.00
2023-05-16T10:57:04.015Z,94154.00
2023-05-16T10:58:04.035Z,94152.00
2023-05-16T10:59:04.036Z,94156.00
2023-05-16T11:00:04.063Z,94156.00
2023-05-16T11:01:04.255Z,94158.00
2023-05-16T11:02:04.822Z,94158.00
2023-05-16T11:03:04.348Z,94156.00
2023-05-16T11:04:04.465Z,94158.00
2023-05-16T11:05:04.261Z,94156.00
2023-05-16T11:06:04.775Z,94158.00
2023-05-16T11:07:04.759Z,94158.00
2023-05-16T11:08:04.519Z,94158.00
2023-05-16T11:09:04.481Z,94162.00
2023-05-16T11:10:04.501Z,94158.00
2023-05-16T11:11:04.472Z,94158.00
2023-05-16T11:12:04.493Z,94160.00
2023-05-16T11:13:04.499Z,94158.00
2023-05-16T11:14:04.591Z,94160.00
2023-05-16T11:15:04.557Z,94163.00
2023-05-16T11:16:04.762Z,94163.00
2023-05-16T11:17:04.758Z,94163.00
2023-05-16T11:18:04.673Z,94162.00
2023-05-16T11:19:04.704Z,94160.00
2023-05-16T11:20:04.640Z,94162.00
2023-05-16T11:21:04.660Z,94162.00
2023-05-16T11:22:04.735Z,94160.00
2023-05-16T11:23:04.631Z,94160.00
2023-05-16T11:24:04.636Z,94160.00
2023-05-16T11:25:04.679Z,94160.00
2023-05-16T11:26:04.747Z,94158.00
2023-05-16T11:27:04.737Z,94162.00
2023-05-16T11:28:04.683Z,94162.00
2023-05-16T11:29:04.713Z,94162.00
2023-05-16T11:30:04.705Z,94162.00
2023-05-16T11:31:04.782Z,94162.00
2023-05-16T11:32:04.863Z,94162.00
2023-05-16T11:33:04.829Z,94158.00
2023-05-16T11:34:04.786Z,94160.00
2023-05-16T11:35:04.813Z,94158.00
2023-05-16T11:36:15.261Z,94158.00
2023-05-16T11:37:05.798Z,94158.00
2023-05-16T11:38:04.790Z,94156.00
2023-05-16T11:39:04.770Z,94156.00
2023-05-16T11:40:04.812Z,94154.00
2023-05-16T11:41:04.771Z,94152.00
2023-05-16T11:42:04.747Z,94154.00
2023-05-16T11:43:07.106Z,94152.00
2023-05-16T11:44:04.897Z,94154.00
2023-05-16T11:45:04.903Z,94152.00
2023-05-16T11:46:04.920Z,94152.00